Time;durP1;ratioP1;P1;durP2;ratioP2;P2;SDS_P1;SDS_P2;PMS_P1;PMS_P2;Temp;Humidity;BMP_temperature;BMP_pressure;BME280_temperature;BME280_humidity;BME280_pressure;Samples;Min_cycle;Max_cycle;Signal;HPM_P1;HPM_P2
2021/06/07 00:01:21;;;;;;;18.55;6.88;;;;;;;12.63;53.77;102353.56;5091747;28;20088;-69
2021/06/07 00:03:47;;;;;;;13.30;5.93;;;;;;;12.56;53.64;102352.00;5088411;28;20027;-69
2021/06/07 00:06:13;;;;;;;12.55;5.88;;;;;;;12.41;53.71;102352.38;5088584;28;20036;-70
2021/06/07 00:08:39;;;;;;;10.07;6.20;;;;;;;12.59;53.74;102353.69;5078293;28;20392;-71
2021/06/07 00:11:05;;;;;;;10.00;6.15;;;;;;;12.50;53.47;102352.13;5075391;28;20040;-71
2021/06/07 00:13:31;;;;;;;9.55;6.28;;;;;;;12.52;53.79;102345.09;5078978;28;20554;-69
2021/06/07 00:15:58;;;;;;;12.65;6.47;;;;;;;12.64;53.37;102344.78;5074801;28;20093;-69
2021/06/07 00:18:25;;;;;;;9.38;5.57;;;;;;;12.57;53.48;102353.69;5074751;28;20569;-71
2021/06/07 00:20:58;;;;;;;12.82;6.78;;;;;;;12.75;52.94;102348.94;5074420;28;20039;-70
2021/06/07 00:23:26;;;;;;;14.13;7.70;;;;;;;12.53;53.53;102352.06;5075603;28;20024;-70
2021/06/07 00:25:53;;;;;;;12.57;7.05;;;;;;;12.53;53.41;102346.81;5077940;28;20123;-70
2021/06/07 00:28:20;;;;;;;13.15;6.95;;;;;;;12.39;54.09;102352.41;5078966;28;20034;-70
2021/06/07 00:30:45;;;;;;;13.95;7.10;;;;;;;12.38;54.51;102352.41;5075474;28;20106;-72
2021/06/07 00:33:11;;;;;;;12.13;7.13;;;;;;;12.75;53.21;102356.81;5075134;28;20519;-71
2021/06/07 00:35:37;;;;;;;16.85;7.97;;;;;;;12.60;53.67;102343.16;5073826;28;20192;-70
2021/06/07 00:38:02;;;;;;;16.33;7.68;;;;;;;12.90;52.58;102348.53;5077971;28;20441;-71
2021/06/07 00:40:29;;;;;;;15.18;8.77;;;;;;;12.85;52.58;102345.19;5075794;28;20051;-70
2021/06/07 00:42:57;;;;;;;10.77;8.25;;;;;;;12.72;53.11;102341.16;5074719;28;20039;-70
2021/06/07 00:45:26;;;;;;;12.10;7.90;;;;;;;12.77;53.55;102345.38;5082284;28;20484;-70
2021/06/07 00:47:53;;;;;;;15.98;7.85;;;;;;;12.85;53.14;102345.19;5072821;28;20044;-70
2021/06/07 00:50:31;;;;;;;14.88;8.35;;;;;;;12.60;53.33;102351.03;5075213;28;20032;-71
2021/06/07 00:53:04;;;;;;;16.30;9.05;;;;;;;12.94;52.61;102339.69;5075760;28;20055;-70
2021/06/07 00:55:39;;;;;;;17.13;9.40;;;;;;;12.99;52.73;102348.28;5075043;28;20032;-70
2021/06/07 00:58:07;;;;;;;17.63;8.93;;;;;;;12.95;52.77;102356.28;5075404;28;20032;-69
2021/06/07 01:00:34;;;;;;;13.68;7.63;;;;;;;12.88;53.06;102355.59;5071719;28;20032;-71
2021/06/07 01:03:00;;;;;;;16.13;9.27;;;;;;;12.93;52.81;102345.81;5075682;28;20044;-69
2021/06/07 01:05:27;;;;;;;19.40;8.05;;;;;;;12.95;52.96;102346.63;5079724;22;20076;-66
2021/06/07 01:07:54;;;;;;;15.82;8.55;;;;;;;12.81;53.09;102354.88;5053052;28;20512;-68
2021/06/07 01:10:21;;;;;;;16.33;8.40;;;;;;;12.88;53.33;102347.72;5067200;28;20032;-67
2021/06/07 01:12:47;;;;;;;18.73;9.88;;;;;;;12.83;53.51;102345.22;5052860;28;20071;-69
2021/06/07 01:15:13;;;;;;;13.52;8.55;;;;;;;12.85;53.36;102347.81;5054301;28;20527;-68
2021/06/07 01:17:39;;;;;;;15.30;8.52;;;;;;;12.60;53.52;102347.50;5054341;28;20127;-70
2021/06/07 01:20:07;;;;;;;16.95;8.63;;;;;;;12.54;54.32;102348.53;5051916;28;20145;-69
2021/06/07 01:22:33;;;;;;;16.55;8.90;;;;;;;12.60;53.66;102348.41;5053190;28;20082;-70
2021/06/07 01:24:59;;;;;;;18.85;9.45;;;;;;;12.72;53.62;102349.03;5054151;28;20132;-69
2021/06/07 01:27:25;;;;;;;16.38;8.82;;;;;;;12.74;53.67;102345.44;5054239;28;20119;-70
2021/06/07 01:29:51;;;;;;;10.80;7.20;;;;;;;12.90;53.37;102348.53;5052237;28;20490;-69
2021/06/07 01:32:16;;;;;;;14.75;8.07;;;;;;;12.84;53.48;102349.53;5050423;28;20020;-70
2021/06/07 01:34:42;;;;;;;12.77;8.38;;;;;;;12.77;53.30;102342.75;5052579;28;20650;-70
2021/06/07 01:37:07;;;;;;;16.05;7.65;;;;;;;12.76;53.44;102342.75;5052140;28;20048;-68
2021/06/07 01:39:33;;;;;;;17.05;8.13;;;;;;;12.84;53.38;102341.66;5052131;28;20119;-71
2021/06/07 01:41:59;;;;;;;14.13;8.40;;;;;;;12.85;53.31;102347.81;5050736;28;20036;-70
2021/06/07 01:44:24;;;;;;;14.93;7.97;;;;;;;12.88;53.41;102339.84;5051849;28;20401;-70
2021/06/07 01:46:50;;;;;;;14.23;7.65;;;;;;;12.86;53.37;102339.00;5052981;28;20033;-69
2021/06/07 01:49:15;;;;;;;19.73;8.13;;;;;;;12.64;53.51;102338.66;5052951;28;20032;-69
2021/06/07 01:51:41;;;;;;;11.73;7.03;;;;;;;12.49;53.73;102337.28;5054234;28;20103;-70
2021/06/07 01:54:07;;;;;;;15.75;7.13;;;;;;;12.59;54.03;102338.78;5053485;28;23085;-69
2021/06/07 01:56:33;;;;;;;13.57;7.20;;;;;;;12.57;53.83;102337.09;5053162;28;20040;-69
2021/06/07 01:59:01;;;;;;;12.73;7.13;;;;;;;12.53;54.16;102336.31;5053227;28;20409;-67
2021/06/07 02:01:28;;;;;;;11.57;6.45;;;;;;;12.59;53.74;102337.94;5040472;28;20036;-66
2021/06/07 02:03:53;;;;;;;8.80;6.85;;;;;;;12.62;53.78;102341.31;5059282;28;20448;-67
2021/06/07 02:06:25;;;;;;;7.80;6.40;;;;;;;12.66;53.68;102348.22;5050865;28;20504;-66
2021/06/07 02:08:54;;;;;;;13.50;6.50;;;;;;;12.74;53.63;102347.22;5051369;28;20128;-66
2021/06/07 02:11:29;;;;;;;8.75;5.80;;;;;;;12.61;53.20;102344.00;5053093;28;20033;-67
2021/06/07 02:13:58;;;;;;;13.65;6.28;;;;;;;12.63;53.43;102343.06;5058504;28;20292;-67
2021/06/07 02:16:29;;;;;;;12.10;7.30;;;;;;;12.55;53.71;102346.78;5053250;28;20041;-69
2021/06/07 02:18:54;;;;;;;9.07;5.43;;;;;;;12.43;54.14;102350.56;5050304;28;20447;-68
2021/06/07 02:21:24;;;;;;;8.18;5.45;;;;;;;12.63;53.57;102344.84;5052938;28;20056;-68
2021/06/07 02:23:50;;;;;;;10.30;5.18;;;;;;;12.47;53.82;102346.97;5058804;28;20452;-68
2021/06/07 02:26:16;;;;;;;17.42;5.75;;;;;;;12.38;54.09;102347.19;5051468;28;20025;-71
2021/06/07 02:28:53;;;;;;;9.10;4.68;;;;;;;12.47;53.64;102349.59;5053053;28;20043;-70
2021/06/07 02:31:23;;;;;;;7.63;4.90;;;;;;;12.50;54.05;102350.38;5052618;28;20093;-69
2021/06/07 02:33:50;;;;;;;14.52;4.47;;;;;;;12.38;54.05;102357.66;5053273;28;20047;-68
2021/06/07 02:36:16;;;;;;;8.85;5.05;;;;;;;12.38;53.73;102347.19;5051832;28;20040;-69
2021/06/07 02:38:43;;;;;;;12.02;4.70;;;;;;;12.52;53.78;102345.09;5052883;28;20017;-68
2021/06/07 02:41:08;;;;;;;7.32;3.72;;;;;;;12.51;53.70;102343.34;5049669;28;20056;-68
2021/06/07 02:43:34;;;;;;;9.30;4.60;;;;;;;12.37;53.74;102348.09;5051084;28;20060;-68
2021/06/07 02:45:59;;;;;;;11.15;4.47;;;;;;;12.46;53.56;102345.25;5053201;28;20060;-68
2021/06/07 02:48:25;;;;;;;17.63;5.30;;;;;;;12.49;53.55;102353.03;5059183;28;20033;-68
2021/06/07 02:50:52;;;;;;;11.13;4.97;;;;;;;12.49;54.20;102348.66;5051487;28;20295;-68
2021/06/07 02:53:18;;;;;;;6.35;4.85;;;;;;;12.52;54.01;102346.88;5051399;28;20048;-66
2021/06/07 02:55:48;;;;;;;14.88;5.20;;;;;;;12.47;53.62;102353.06;5050086;28;20079;-66
2021/06/07 02:58:14;;;;;;;9.10;4.97;;;;;;;12.25;54.32;102355.34;5050853;28;20041;-67
2021/06/07 03:01:01;;;;;;;14.48;5.28;;;;;;;12.34;53.75;102349.03;5051519;28;20311;-67
2021/06/07 03:03:27;;;;;;;9.20;5.35;;;;;;;12.41;53.84;102352.38;5050553;28;20243;-66
2021/06/07 03:05:55;;;;;;;7.32;4.88;;;;;;;12.39;53.58;102355.00;5051430;28;20037;-67
2021/06/07 03:08:23;;;;;;;11.55;6.32;;;;;;;12.37;53.91;102353.34;5059027;28;20095;-66
2021/06/07 03:10:52;;;;;;;14.60;6.82;;;;;;;11.99;54.65;102355.09;5051145;28;20033;-66
2021/06/07 03:13:22;;;;;;;11.93;6.95;;;;;;;11.95;54.54;102353.44;5049573;28;20043;-67
2021/06/07 03:15:48;;;;;;;14.75;6.65;;;;;;;12.00;54.83;102354.19;5065623;28;20117;-66
2021/06/07 03:18:14;;;;;;;12.20;6.22;;;;;;;12.12;54.22;102351.28;5051501;28;20040;-66
2021/06/07 03:20:39;;;;;;;11.60;5.90;;;;;;;11.84;54.74;102359.78;5050078;28;20534;-66
2021/06/07 03:23:09;;;;;;;9.07;6.15;;;;;;;12.00;54.58;102356.78;5051859;28;20036;-67
2021/06/07 03:25:35;;;;;;;14.07;7.30;;;;;;;11.74;54.63;102355.59;5049665;28;20037;-68
2021/06/07 03:28:01;;;;;;;8.57;4.85;;;;;;;11.74;54.98;102354.72;5050889;28;20031;-67
2021/06/07 03:30:27;;;;;;;10.18;6.00;;;;;;;12.01;54.14;102358.53;5052284;28;20033;-67
2021/06/07 03:32:53;;;;;;;9.88;5.32;;;;;;;11.93;53.88;102363.06;5052017;28;20045;-69
2021/06/07 03:35:19;;;;;;;8.00;5.82;;;;;;;11.90;54.21;102361.38;5050501;28;20025;-66
2021/06/07 03:37:45;;;;;;;9.43;5.88;;;;;;;11.82;54.42;102366.81;5049394;28;21151;-66
2021/06/07 03:40:17;;;;;;;8.10;5.07;;;;;;;11.75;54.52;102357.31;5051870;28;20033;-67
2021/06/07 03:42:43;;;;;;;12.73;4.88;;;;;;;11.93;53.71;102352.59;5051811;28;20032;-70
2021/06/07 03:45:10;;;;;;;6.95;4.72;;;;;;;11.81;54.42;102357.22;5055740;28;20041;-69
2021/06/07 03:47:38;;;;;;;6.60;4.95;;;;;;;11.99;53.89;102355.94;5054102;28;20048;-66
2021/06/07 03:50:08;;;;;;;11.05;4.85;;;;;;;11.92;53.57;102356.97;5056237;28;20033;-68
2021/06/07 03:52:34;;;;;;;9.73;4.57;;;;;;;12.00;53.37;102356.78;5054653;28;20060;-68
2021/06/07 03:55:00;;;;;;;9.43;4.13;;;;;;;12.08;53.40;102354.88;5054501;28;20114;-70
2021/06/07 03:57:26;;;;;;;10.25;4.60;;;;;;;12.10;53.32;102354.84;5053115;28;20115;-70
2021/06/07 03:59:51;;;;;;;11.15;4.45;;;;;;;12.21;53.45;102351.06;5062072;28;20107;-69
2021/06/07 04:02:19;;;;;;;10.02;3.85;;;;;;;12.30;52.93;102355.25;5053251;28;20087;-69
2021/06/07 04:04:44;;;;;;;5.00;3.30;;;;;;;12.42;52.81;102349.72;5055913;28;20424;-68
2021/06/07 04:07:10;;;;;;;9.23;3.42;;;;;;;12.57;52.14;102353.69;5055984;28;20202;-68
2021/06/07 04:09:35;;;;;;;8.82;3.42;;;;;;;12.73;52.22;102345.47;5052835;28;20110;-68
2021/06/07 04:12:01;;;;;;;8.88;3.53;;;;;;;12.80;52.04;102339.16;5051493;28;20033;-69
2021/06/07 04:14:26;;;;;;;10.05;3.67;;;;;;;12.85;51.63;102347.81;5054389;28;20036;-69
2021/06/07 04:16:52;;;;;;;6.38;3.17;;;;;;;12.92;51.30;102341.47;5045471;28;20101;-70
2021/06/07 04:19:19;;;;;;;7.70;2.33;;;;;;;12.90;51.28;102336.25;5055317;28;20052;-71
2021/06/07 04:21:45;;;;;;;4.60;2.75;;;;;;;13.03;51.21;102335.94;5053093;28;20090;-69
2021/06/07 04:24:10;;;;;;;6.05;2.58;;;;;;;12.89;51.50;102344.16;5056152;28;20029;-70
2021/06/07 04:26:36;;;;;;;8.50;2.90;;;;;;;12.92;51.81;102338.84;5055757;28;20497;-70
2021/06/07 04:29:02;;;;;;;6.80;3.05;;;;;;;13.01;51.30;102335.97;5056269;28;20043;-70
2021/06/07 04:31:28;;;;;;;6.30;2.60;;;;;;;13.04;51.14;102328.00;5057231;28;20472;-69
2021/06/07 04:33:54;;;;;;;8.35;3.35;;;;;;;13.08;51.05;102329.66;5044763;28;20037;-69
2021/06/07 04:36:19;;;;;;;9.02;3.00;;;;;;;13.00;51.57;102331.63;5054772;28;20035;-69
2021/06/07 04:38:45;;;;;;;8.30;3.88;;;;;;;13.16;50.76;102336.44;5054286;28;20505;-69
2021/06/07 04:41:11;;;;;;;5.13;2.63;;;;;;;13.07;51.14;102330.56;5052474;28;20037;-69
2021/06/07 04:43:37;;;;;;;4.75;3.15;;;;;;;13.17;50.95;102336.41;5053401;28;20033;-67
2021/06/07 04:46:03;;;;;;;7.47;2.80;;;;;;;13.38;50.79;102331.47;5053565;28;20056;-67
2021/06/07 04:48:28;;;;;;;6.90;3.58;;;;;;;12.99;51.36;102334.31;5056315;28;20029;-67
2021/06/07 04:50:54;;;;;;;6.75;3.50;;;;;;;13.31;50.80;102336.03;5054198;28;20511;-68
2021/06/07 04:53:19;;;;;;;6.05;2.70;;;;;;;13.62;50.83;102333.41;5055217;28;20093;-69
2021/06/07 04:55:50;;;;;;;8.23;3.80;;;;;;;13.48;50.77;102335.56;5052199;28;20071;-68
2021/06/07 04:58:18;;;;;;;5.22;2.80;;;;;;;13.59;50.75;102335.28;5052764;28;20033;-69
2021/06/07 05:00:46;;;;;;;6.22;3.25;;;;;;;13.82;50.21;102338.06;5053563;28;20040;-67
2021/06/07 05:03:12;;;;;;;6.63;3.10;;;;;;;13.70;50.76;102343.69;5055093;28;20044;-67
2021/06/07 05:05:38;;;;;;;8.98;3.08;;;;;;;13.72;50.49;102339.25;5051261;28;20035;-68
2021/06/07 05:08:04;;;;;;;4.70;2.28;;;;;;;13.75;50.31;102339.16;5052942;28;20037;-67
2021/06/07 05:10:30;;;;;;;5.63;2.60;;;;;;;13.27;51.15;102337.00;5052357;28;20100;-67
2021/06/07 05:12:56;;;;;;;11.05;3.50;;;;;;;13.72;49.90;102340.13;5053742;28;20575;-70
2021/06/07 05:15:22;;;;;;;3.15;2.25;;;;;;;13.86;49.80;102344.09;5052288;28;20037;-69
2021/06/07 05:17:47;;;;;;;3.25;2.95;;;;;;;14.18;48.97;102344.84;5054339;28;20025;-67
2021/06/07 05:20:17;;;;;;;4.63;3.00;;;;;;;14.30;48.52;102350.59;5052788;28;20094;-68
2021/06/07 05:22:43;;;;;;;4.30;3.03;;;;;;;14.07;49.57;102353.06;5053865;28;20102;-69
2021/06/07 05:25:09;;;;;;;13.65;2.65;;;;;;;13.87;49.12;102362.41;5053374;28;20431;-70
2021/06/07 05:27:35;;;;;;;5.10;2.20;;;;;;;14.09;49.30;102359.16;5054340;28;20029;-71
2021/06/07 05:30:02;;;;;;;10.30;3.20;;;;;;;13.66;49.56;102355.19;5051294;28;20040;-69
2021/06/07 05:32:28;;;;;;;5.85;3.05;;;;;;;13.75;49.18;102357.56;5054129;28;20036;-70
2021/06/07 05:34:54;;;;;;;6.15;2.45;;;;;;;13.80;49.94;102366.16;5051678;28;20047;-67
2021/06/07 05:37:20;;;;;;;5.53;3.00;;;;;;;13.88;48.92;102364.16;5052878;28;20037;-68
2021/06/07 05:39:48;;;;;;;4.32;2.03;;;;;;;14.12;48.86;102364.28;5052452;28;20029;-70
2021/06/07 05:42:13;;;;;;;5.90;2.75;;;;;;;14.37;47.73;102374.91;5055391;28;20039;-68
2021/06/07 05:44:39;;;;;;;3.83;2.45;;;;;;;14.56;47.44;102373.41;5051921;28;20036;-68
2021/06/07 05:47:04;;;;;;;7.22;2.80;;;;;;;14.40;47.81;102371.31;5051703;28;20029;-68
2021/06/07 05:49:30;;;;;;;4.18;2.92;;;;;;;14.00;48.77;102372.56;5054123;28;20756;-68
2021/06/07 05:51:55;;;;;;;3.60;2.65;;;;;;;13.92;48.61;102371.06;5053722;28;20060;-68
2021/06/07 05:54:21;;;;;;;6.82;2.88;;;;;;;14.55;47.34;102371.72;5054044;28;20036;-68
2021/06/07 05:56:53;;;;;;;3.88;1.88;;;;;;;16.48;42.76;102372.53;5052494;28;20119;-68
2021/06/07 05:59:18;;;;;;;3.88;1.77;;;;;;;18.61;38.30;102361.97;5052320;28;20062;-70
2021/06/07 06:01:44;;;;;;;1.80;1.10;;;;;;;18.75;37.12;102369.22;5052625;28;20677;-68
2021/06/07 06:04:09;;;;;;;6.38;1.30;;;;;;;20.44;34.23;102368.84;5053604;28;20028;-68
2021/06/07 06:06:35;;;;;;;2.05;1.10;;;;;;;21.06;32.46;102365.19;5052201;28;20503;-69
2021/06/07 06:09:00;;;;;;;6.57;1.60;;;;;;;21.30;32.03;102363.66;5052125;28;20416;-67
2021/06/07 06:11:26;;;;;;;4.40;0.93;;;;;;;20.36;33.19;102360.47;5052985;28;20024;-67
2021/06/07 06:13:51;;;;;;;2.47;0.65;;;;;;;19.31;35.58;102370.72;5059573;28;20462;-67
2021/06/07 06:16:19;;;;;;;3.80;0.65;;;;;;;18.43;37.68;102367.25;5052777;28;20689;-67
2021/06/07 06:18:46;;;;;;;8.20;1.35;;;;;;;17.67;38.55;102368.25;5049899;28;20600;-66
2021/06/07 06:21:12;;;;;;;7.43;1.58;;;;;;;17.55;39.62;102367.91;5053750;28;20078;-67
2021/06/07 06:23:39;;;;;;;2.28;1.17;;;;;;;17.61;39.94;102367.63;5052695;28;20048;-68
2021/06/07 06:26:06;;;;;;;2.22;1.40;;;;;;;17.86;39.20;102366.47;5051543;28;20036;-67
2021/06/07 06:28:32;;;;;;;3.63;1.23;;;;;;;19.48;35.79;102364.50;5050743;28;20068;-68
2021/06/07 06:30:57;;;;;;;4.40;1.48;;;;;;;20.67;33.51;102363.97;5065389;28;20068;-68
2021/06/07 06:33:23;;;;;;;4.82;1.20;;;;;;;19.19;35.39;102360.75;5051903;28;20053;-67
2021/06/07 06:35:48;;;;;;;6.30;1.63;;;;;;;18.69;37.35;102363.28;5049280;28;20416;-67
2021/06/07 06:38:16;;;;;;;5.18;1.55;;;;;;;18.45;38.25;102362.75;5050258;28;20107;-68
2021/06/07 06:40:42;;;;;;;4.88;1.52;;;;;;;17.94;38.51;102363.47;5052716;28;20036;-67
2021/06/07 06:43:10;;;;;;;2.95;1.42;;;;;;;18.28;37.81;102368.03;5051163;28;20448;-67
2021/06/07 06:45:36;;;;;;;6.38;1.70;;;;;;;18.47;38.31;102367.94;5054170;28;20135;-67
2021/06/07 06:48:04;;;;;;;5.40;1.55;;;;;;;17.62;39.50;102377.25;5053222;28;20037;-68
2021/06/07 06:50:33;;;;;;;4.93;1.73;;;;;;;18.00;39.31;102374.59;5053369;28;20613;-68
2021/06/07 06:53:00;;;;;;;4.47;1.45;;;;;;;17.33;39.81;102377.72;5051472;28;20141;-68
2021/06/07 06:55:26;;;;;;;3.10;1.17;;;;;;;17.14;40.52;102375.06;5050534;28;20044;-67
2021/06/07 06:57:51;;;;;;;4.63;2.00;;;;;;;17.10;40.71;102382.25;5051455;28;20029;-67
2021/06/07 07:00:17;;;;;;;3.88;2.00;;;;;;;17.15;40.63;102384.69;5050604;28;20119;-67
2021/06/07 07:02:43;;;;;;;2.60;1.70;;;;;;;16.78;41.35;102384.50;5053636;28;20043;-67
2021/06/07 07:05:09;;;;;;;4.05;2.45;;;;;;;16.70;42.28;102393.63;5051667;28;20036;-67
2021/06/07 07:07:34;;;;;;;3.25;1.73;;;;;;;16.71;41.89;102384.78;5051299;28;20028;-67
2021/06/07 07:10:00;;;;;;;2.42;1.92;;;;;;;16.28;42.98;102394.47;5050809;28;20401;-69
2021/06/07 07:12:26;;;;;;;4.28;1.95;;;;;;;15.71;43.94;102394.03;5049715;28;20078;-68
2021/06/07 07:14:53;;;;;;;4.72;1.60;;;;;;;16.62;41.62;102394.81;5052347;28;20321;-67
2021/06/07 07:17:19;;;;;;;6.25;1.58;;;;;;;16.82;42.12;102386.09;5054329;28;20036;-67
2021/06/07 07:19:46;;;;;;;3.88;1.42;;;;;;;16.76;41.87;102396.91;5054455;28;20493;-68
2021/06/07 07:22:13;;;;;;;4.30;1.15;;;;;;;17.12;39.83;102398.88;5057713;28;20071;-68
2021/06/07 07:24:43;;;;;;;1.17;1.08;;;;;;;17.39;40.05;102394.16;5053562;28;20039;-68
2021/06/07 07:27:11;;;;;;;3.28;1.33;;;;;;;17.22;40.63;102397.56;5054109;28;20132;-67
2021/06/07 07:29:38;;;;;;;3.22;1.10;;;;;;;17.10;40.57;102398.09;5055569;28;20248;-68
2021/06/07 07:32:05;;;;;;;4.47;1.83;;;;;;;17.16;40.26;102396.97;5055199;28;20389;-67
2021/06/07 07:34:30;;;;;;;2.42;1.20;;;;;;;16.69;40.88;102392.78;5057154;28;20032;-67
2021/06/07 07:36:56;;;;;;;6.75;1.48;;;;;;;16.88;40.50;102400.78;5052418;28;20045;-67
2021/06/07 07:39:21;;;;;;;3.78;1.05;;;;;;;16.83;41.10;102406.28;5054446;28;20029;-67
2021/06/07 07:41:47;;;;;;;4.07;2.03;;;;;;;16.97;40.23;102407.47;5054676;28;20045;-68
2021/06/07 07:44:12;;;;;;;4.80;1.88;;;;;;;17.23;40.50;102404.56;5052509;28;20035;-68
2021/06/07 07:46:38;;;;;;;3.05;0.90;;;;;;;17.11;40.65;102410.34;5056985;28;20020;-68
2021/06/07 07:49:03;;;;;;;4.05;1.48;;;;;;;17.26;39.39;102408.00;5053911;28;20055;-68
2021/06/07 07:51:29;;;;;;;3.05;1.40;;;;;;;18.03;39.22;102414.16;5051125;28;20043;-68
2021/06/07 07:53:54;;;;;;;4.63;2.15;;;;;;;17.55;39.32;102404.91;5055552;28;20040;-67
2021/06/07 07:56:20;;;;;;;4.47;1.40;;;;;;;17.70;39.29;102407.81;5055555;28;20037;-67
2021/06/07 07:58:46;;;;;;;5.72;2.47;;;;;;;17.93;38.17;102404.94;5054021;28;20071;-68
2021/06/07 08:01:11;;;;;;;2.53;1.75;;;;;;;19.53;36.61;102410.19;5053736;28;20029;-68
2021/06/07 08:03:37;;;;;;;3.17;1.27;;;;;;;21.65;32.19;102400.53;5052443;28;20529;-67
2021/06/07 08:06:02;;;;;;;5.88;1.10;;;;;;;21.08;32.09;102409.34;5053565;28;20047;-68
2021/06/07 08:08:28;;;;;;;2.58;0.70;;;;;;;21.07;32.33;102404.97;5038143;28;20089;-68
2021/06/07 08:10:56;;;;;;;1.50;0.93;;;;;;;22.03;30.12;102405.22;5054247;28;20671;-68
2021/06/07 08:13:23;;;;;;;4.32;0.90;;;;;;;22.53;30.53;102405.50;5060693;28;20422;-67
2021/06/07 08:15:50;;;;;;;5.22;1.15;;;;;;;22.47;29.77;102401.47;5056110;28;20237;-67
2021/06/07 08:18:15;;;;;;;1.65;0.50;;;;;;;22.99;29.32;102399.75;5052331;28;20037;-68
2021/06/07 08:20:41;;;;;;;2.03;0.68;;;;;;;21.95;30.75;102405.69;5053673;28;20037;-68
2021/06/07 08:23:07;;;;;;;2.90;0.63;;;;;;;21.48;30.73;102408.72;5049488;28;20043;-68
2021/06/07 08:25:32;;;;;;;4.15;0.80;;;;;;;20.70;31.58;102414.25;5054115;28;20505;-67
2021/06/07 08:27:58;;;;;;;1.13;0.90;;;;;;;19.57;33.26;102410.88;5050034;28;20431;-67
2021/06/07 08:30:24;;;;;;;7.82;0.98;;;;;;;20.06;32.87;102414.34;5065701;28;20240;-66
2021/06/07 08:32:50;;;;;;;2.88;0.60;;;;;;;19.02;35.13;102417.31;5049962;28;20036;-67
2021/06/07 08:35:16;;;;;;;4.90;1.27;;;;;;;18.74;36.16;102413.34;5051473;28;20100;-68
2021/06/07 08:37:42;;;;;;;2.58;0.70;;;;;;;19.46;35.24;102412.31;5051840;28;20031;-67
2021/06/07 08:40:10;;;;;;;4.72;1.02;;;;;;;18.99;34.53;102422.72;5048691;28;20436;-68
2021/06/07 08:42:43;;;;;;;3.10;0.80;;;;;;;19.13;35.08;102408.78;5051107;28;20035;-68
2021/06/07 08:45:12;;;;;;;4.03;1.30;;;;;;;19.17;35.75;102405.06;5048407;28;20028;-68
2021/06/07 08:47:42;;;;;;;2.47;0.88;;;;;;;18.66;35.97;102410.25;5049183;28;20017;-68
2021/06/07 08:50:09;;;;;;;5.15;1.25;;;;;;;18.79;35.56;102414.00;5049757;28;20191;-69
2021/06/07 08:52:35;;;;;;;2.20;1.48;;;;;;;18.50;36.68;102409.28;5051107;28;20043;-68
2021/06/07 08:55:04;;;;;;;3.25;0.90;;;;;;;18.65;35.31;102414.72;5049343;28;20036;-68
2021/06/07 08:57:30;;;;;;;2.97;1.13;;;;;;;18.35;36.55;102406.47;5052797;28;20159;-67
2021/06/07 08:59:55;;;;;;;3.78;1.13;;;;;;;18.18;36.51;102412.53;5050436;28;20671;-67
2021/06/07 09:02:38;;;;;;;4.38;1.58;;;;;;;18.69;36.31;102421.53;5058327;28;20029;-67
2021/06/07 09:05:05;;;;;;;1.67;0.70;;;;;;;18.73;35.62;102416.09;5056528;28;20039;-68
2021/06/07 09:07:31;;;;;;;2.85;1.30;;;;;;;18.28;36.17;102418.31;5049049;28;20146;-68
2021/06/07 09:10:06;;;;;;;4.15;0.95;;;;;;;18.86;35.50;102420.69;5033251;28;20054;-68
2021/06/07 09:12:32;;;;;;;1.50;0.75;;;;;;;18.27;36.05;102419.22;5047260;28;20033;-68
2021/06/07 09:14:58;;;;;;;2.10;0.90;;;;;;;18.18;36.52;102417.00;5061182;22;20087;-66
2021/06/07 09:17:23;;;;;;;1.67;0.70;;;;;;;17.94;36.40;102411.06;5050014;28;20028;-69
2021/06/07 09:20:08;;;;;;;2.58;0.85;;;;;;;18.46;36.95;102414.75;5049812;28;20090;-68
2021/06/07 09:22:33;;;;;;;3.35;1.00;;;;;;;18.40;35.86;102409.75;5054639;28;20032;-69
2021/06/07 09:25:12;;;;;;;2.08;0.80;;;;;;;18.68;35.44;102408.41;5050622;28;20043;-68
2021/06/07 09:27:39;;;;;;;2.80;1.00;;;;;;;18.99;34.67;102406.84;5027191;28;20077;-66
2021/06/07 09:30:42;;;;;;;2.95;0.90;;;;;;;19.49;34.25;102416.59;5030957;28;20600;-68
2021/06/07 09:33:37;;;;;;;5.60;0.95;;;;;;;20.04;34.12;102408.28;5045795;28;20045;-69
2021/06/07 09:36:20;;;;;;;6.88;1.05;;;;;;;19.82;33.62;102410.41;5045170;28;20040;-68
2021/06/07 09:39:11;;;;;;;3.60;1.30;;;;;;;19.21;33.83;102415.41;5045113;28;20127;-68
2021/06/07 09:41:46;;;;;;;2.58;0.70;;;;;;;19.81;34.34;102420.16;5046384;28;20032;-68
2021/06/07 09:44:43;;;;;;;2.40;0.93;;;;;;;20.15;33.29;102420.06;5029692;28;20041;-67
2021/06/07 09:47:20;;;;;;;1.52;0.95;;;;;;;19.93;33.08;102416.00;5021241;28;20124;-67
2021/06/07 09:49:51;;;;;;;2.90;1.40;;;;;;;19.94;33.35;102407.06;5028166;28;20048;-69
2021/06/07 09:52:22;;;;;;;;;;;;;;;20.40;32.64;102414.28;5048191;28;20087;-67
2021/06/07 09:55:05;;;;;;;4.50;1.15;;;;;;;20.68;32.09;102410.84;5044938;28;19983;-65
2021/06/07 09:57:40;;;;;;;5.43;0.93;;;;;;;20.70;31.55;102411.59;5046097;28;20112;-68
2021/06/07 10:00:06;;;;;;;2.88;1.40;;;;;;;20.45;31.54;102417.50;5027573;28;20483;-67
2021/06/07 10:02:36;;;;;;;3.97;0.80;;;;;;;20.87;30.54;102416.81;5047643;28;20040;-67
2021/06/07 10:05:01;;;;;;;6.15;0.95;;;;;;;20.51;32.03;102423.31;5046704;28;20044;-66
2021/06/07 10:07:27;;;;;;;0.90;0.50;;;;;;;20.67;30.42;102412.66;5042837;28;20511;-67
2021/06/07 10:10:11;;;;;;;2.55;0.85;;;;;;;20.76;31.38;102415.72;5026477;28;20065;-67
2021/06/07 10:12:39;;;;;;;1.75;0.90;;;;;;;21.08;31.59;102424.44;5044286;28;20046;-66
2021/06/07 10:15:05;;;;;;;3.10;0.80;;;;;;;21.07;30.43;102420.94;5044861;28;20041;-67
2021/06/07 10:17:31;;;;;;;3.13;0.85;;;;;;;21.08;31.57;102421.78;5025295;28;20047;-67
2021/06/07 10:22:38;;;;;;;2.00;0.73;;;;;;;20.35;31.66;102421.63;5046410;28;20032;-67
2021/06/07 10:25:06;;;;;;;2.00;0.73;;;;;;;20.28;31.71;102422.00;5046450;28;20064;-67
2021/06/07 10:27:31;;;;;;;2.70;1.02;;;;;;;20.37;31.50;102422.41;5026792;28;20037;-68
2021/06/07 10:29:57;;;;;;;1.73;0.65;;;;;;;20.35;31.00;102417.19;5026181;28;20142;-66
2021/06/07 10:32:27;;;;;;;6.53;0.70;;;;;;;20.42;31.24;102418.53;5027022;28;20235;-68
2021/06/07 10:34:56;;;;;;;2.20;0.52;;;;;;;20.94;31.03;102410.19;5045264;28;20033;-67
2021/06/07 10:37:24;;;;;;;6.50;1.25;;;;;;;21.44;29.87;102407.16;5047925;28;20036;-68
2021/06/07 10:39:51;;;;;;;1.20;0.60;;;;;;;21.47;29.91;102409.66;5043089;28;20040;-68
2021/06/07 10:42:23;;;;;;;5.18;0.85;;;;;;;21.35;29.06;102408.59;5043262;28;20642;-68
2021/06/07 10:44:52;;;;;;;1.70;0.50;;;;;;;21.13;30.18;102415.25;5043020;28;20140;-69
2021/06/07 10:47:24;;;;;;;0.98;0.68;;;;;;;20.97;30.07;102405.63;5049082;28;20065;-68
2021/06/07 10:49:50;;;;;;;3.25;0.82;;;;;;;20.74;29.90;102407.81;5044855;28;20039;-67
2021/06/07 10:52:21;;;;;;;0.68;0.38;;;;;;;20.33;29.98;102408.47;5047356;28;20041;-67
2021/06/07 10:55:07;;;;;;;1.77;0.93;;;;;;;20.87;30.04;102400.88;5020859;28;20130;-70
2021/06/07 10:57:36;;;;;;;3.70;0.50;;;;;;;21.45;28.63;102403.56;5048368;28;20120;-68
2021/06/07 11:00:30;;;;;;;4.57;0.88;;;;;;;21.15;29.08;102410.69;5046605;28;20020;-68
2021/06/07 11:02:58;;;;;;;1.88;0.40;;;;;;;21.00;28.37;102406.31;5047427;28;20098;-68
2021/06/07 11:05:27;;;;;;;1.98;0.55;;;;;;;20.45;30.16;102407.72;5050568;28;20445;-67
2021/06/07 11:08:00;;;;;;;2.95;0.30;;;;;;;20.01;29.84;102403.13;5031417;28;20036;-68
2021/06/07 11:10:47;;;;;;;1.50;0.50;;;;;;;20.26;30.83;102407.06;5018301;28;20039;-65
2021/06/07 11:13:13;;;;;;;1.98;0.60;;;;;;;20.61;30.64;102401.53;5047638;28;20037;-69
2021/06/07 11:15:51;;;;;;;2.17;0.80;;;;;;;21.01;30.57;102410.66;5049011;28;20032;-67
2021/06/07 11:18:20;;;;;;;1.92;0.60;;;;;;;20.93;29.99;102408.47;5048110;28;20485;-68
2021/06/07 11:20:46;;;;;;;3.50;1.38;;;;;;;21.43;29.39;102410.78;5043512;28;20041;-68
2021/06/07 11:23:21;;;;;;;3.83;0.77;;;;;;;21.56;28.68;102407.28;5047179;28;20029;-68
2021/06/07 11:25:55;;;;;;;5.03;0.82;;;;;;;21.64;28.84;102409.44;5032793;28;20036;-68
2021/06/07 11:28:31;;;;;;;6.75;0.50;;;;;;;20.96;30.09;102409.25;5029330;28;20032;-68
2021/06/07 11:30:59;;;;;;;4.35;0.60;;;;;;;21.12;28.99;102407.34;5048613;28;20312;-68